Time;durP1;ratioP1;P1;durP2;ratioP2;P2;SDS_P1;SDS_P2;PMS_P1;PMS_P2;Temp;Humidity;BMP_temperature;BMP_pressure;BME280_temperature;BME280_humidity;BME280_pressure;Samples;Min_cycle;Max_cycle;Signal;HPM_P1;HPM_P2
2024/01/09 00:00:58;;;;;;;0.52;0.52;;;;;;;-3.36;85.27;102883.47;5087635;28;20046;-65
2024/01/09 00:03:23;;;;;;;2.22;2.05;;;;;;;-3.35;86.03;102867.44;5087229;28;20021;-64
2024/01/09 00:05:48;;;;;;;2.08;1.65;;;;;;;-3.17;86.21;102874.91;5103158;28;20027;-66
2024/01/09 00:08:14;;;;;;;0.68;0.68;;;;;;;-3.13;86.43;102872.78;5087263;28;20023;-66
2024/01/09 00:10:39;;;;;;;2.47;2.22;;;;;;;-3.09;86.52;102873.94;5087404;28;20036;-65
2024/01/09 00:13:04;;;;;;;1.83;1.73;;;;;;;-3.08;86.58;102870.63;5102824;28;20017;-65
2024/01/09 00:15:30;;;;;;;0.90;0.90;;;;;;;-3.08;86.34;102868.09;5087001;28;20449;-65
2024/01/09 00:17:59;;;;;;;2.42;2.03;;;;;;;-3.06;86.63;102869.13;5087042;28;20050;-65
2024/01/09 00:20:24;;;;;;;1.60;1.50;;;;;;;-3.15;86.76;102864.16;5087100;28;20046;-65
2024/01/09 00:22:51;;;;;;;2.50;1.52;;;;;;;-3.06;86.82;102871.69;5087357;28;20017;-65
2024/01/09 00:25:18;;;;;;;17.35;3.22;;;;;;;-3.12;87.15;102866.06;5087055;28;20028;-64
2024/01/09 00:27:43;;;;;;;7.05;2.05;;;;;;;-3.08;87.23;102874.84;5086797;28;20027;-64
2024/01/09 00:30:09;;;;;;;1.58;1.15;;;;;;;-3.06;86.97;102874.22;5102434;28;20115;-64
2024/01/09 00:32:35;;;;;;;1.27;1.20;;;;;;;-3.08;87.17;102867.22;5086519;28;20084;-65
2024/01/09 00:35:01;;;;;;;1.85;1.60;;;;;;;-3.04;87.36;102875.25;5086913;28;20035;-66
2024/01/09 00:37:26;;;;;;;2.30;2.20;;;;;;;-3.04;87.20;102875.25;5086820;28;20461;-64
2024/01/09 00:39:52;;;;;;;0.82;0.82;;;;;;;-3.06;87.46;102866.59;5086335;28;20040;-65
2024/01/09 00:42:17;;;;;;;0.93;0.93;;;;;;;-3.03;87.21;102876.13;5086677;28;20102;-65
2024/01/09 00:44:42;;;;;;;2.22;1.77;;;;;;;-3.02;87.28;102885.56;5086655;28;20088;-65
2024/01/09 00:47:08;;;;;;;1.90;1.80;;;;;;;-3.08;87.38;102868.09;5086279;28;20040;-65
2024/01/09 00:49:33;;;;;;;2.42;1.48;;;;;;;-3.02;87.71;102885.56;5102051;28;20024;-65
2024/01/09 00:51:58;;;;;;;2.97;1.90;;;;;;;-2.94;87.51;102884.56;5102070;28;20023;-66
2024/01/09 00:54:24;;;;;;;2.92;1.60;;;;;;;-2.89;87.63;102887.53;5086493;28;20048;-64
2024/01/09 00:56:49;;;;;;;1.80;1.70;;;;;;;-2.91;87.58;102871.22;5084920;28;20071;-65
2024/01/09 00:59:14;;;;;;;1.00;0.98;;;;;;;-2.91;87.71;102874.69;5086175;28;20393;-65
2024/01/09 01:01:40;;;;;;;1.20;1.13;;;;;;;-2.86;87.84;102870.00;5101687;28;20016;-65
2024/01/09 01:04:05;;;;;;;0.98;0.98;;;;;;;-2.87;88.03;102855.47;5086068;28;20027;-65
2024/01/09 01:06:39;;;;;;;3.78;1.15;;;;;;;-2.83;88.08;102859.19;5086038;28;20052;-64
2024/01/09 01:09:05;;;;;;;3.60;1.90;;;;;;;-2.85;88.43;102843.78;5086058;28;20021;-65
2024/01/09 01:11:30;;;;;;;3.80;2.85;;;;;;;-2.77;88.44;102845.34;5086130;28;20055;-64
2024/01/09 01:13:55;;;;;;;2.35;2.08;;;;;;;-2.71;88.49;102849.16;5086210;28;20040;-66
2024/01/09 01:16:21;;;;;;;2.65;2.40;;;;;;;-2.75;88.24;102853.97;5086175;28;20123;-65
2024/01/09 01:18:46;;;;;;;0.80;0.80;;;;;;;-2.71;88.50;102851.69;5085676;28;20032;-64
2024/01/09 01:21:11;;;;;;;1.50;1.40;;;;;;;-2.69;88.68;102845.09;5101487;28;20025;-64
2024/01/09 01:23:37;;;;;;;1.77;1.67;;;;;;;-2.71;88.69;102839.88;5101287;28;20021;-66
2024/01/09 01:26:02;;;;;;;1.25;1.15;;;;;;;-2.71;89.00;102844.06;5085930;28;20078;-66
2024/01/09 01:28:28;;;;;;;0.88;0.88;;;;;;;-2.75;88.81;102836.19;5085371;28;20020;-65
2024/01/09 01:30:53;;;;;;;1.83;1.60;;;;;;;-2.75;88.84;102837.84;5084034;28;20020;-64
2024/01/09 01:33:18;;;;;;;8.38;1.50;;;;;;;-2.70;88.85;102838.25;5101156;28;20051;-63
2024/01/09 01:35:44;;;;;;;8.70;1.17;;;;;;;-2.75;88.88;102828.56;5085631;28;20134;-65
2024/01/09 01:38:09;;;;;;;0.93;0.90;;;;;;;-2.80;88.90;102823.84;5085796;28;20025;-64
2024/01/09 01:40:34;;;;;;;0.57;0.57;;;;;;;-2.81;88.66;102825.50;5085481;28;20052;-65
2024/01/09 01:43:00;;;;;;;2.53;1.38;;;;;;;-2.79;88.79;102833.25;5085628;28;20025;-65
2024/01/09 01:45:25;;;;;;;1.38;1.27;;;;;;;-2.85;88.71;102828.53;5084196;28;20020;-65
2024/01/09 01:47:51;;;;;;;0.80;0.80;;;;;;;-2.90;89.05;102815.44;5085071;28;20086;-64
2024/01/09 01:50:16;;;;;;;4.13;3.45;;;;;;;-2.87;89.00;102823.31;5085533;28;20021;-66
2024/01/09 01:52:44;;;;;;;1.73;1.63;;;;;;;-2.86;88.99;102827.66;5085507;28;20050;-66
2024/01/09 01:55:10;;;;;;;5.18;1.88;;;;;;;-2.89;88.96;102829.06;5085521;28;20025;-65
2024/01/09 01:57:38;;;;;;;4.80;1.52;;;;;;;-2.90;89.07;102829.78;5085393;28;20456;-65
2024/01/09 02:00:04;;;;;;;1.25;1.23;;;;;;;-2.93;89.17;102826.97;5085379;28;20039;-65
2024/01/09 02:02:30;;;;;;;1.00;1.00;;;;;;;-2.92;89.40;102823.66;5085239;28;20079;-66
2024/01/09 02:04:57;;;;;;;0.70;0.70;;;;;;;-2.92;89.49;102828.75;5101058;28;20331;-66
2024/01/09 02:07:23;;;;;;;2.97;2.67;;;;;;;-2.93;89.46;102822.81;5085175;28;20035;-65
2024/01/09 02:09:51;;;;;;;1.83;1.13;;;;;;;-2.89;89.63;102829.06;5085201;28;20463;-66
2024/01/09 02:12:17;;;;;;;3.38;1.55;;;;;;;-2.90;89.74;102830.69;5083771;28;20476;-65
2024/01/09 02:14:42;;;;;;;0.80;0.80;;;;;;;-2.86;89.60;102819.16;5085154;28;20032;-64
2024/01/09 02:17:07;;;;;;;2.35;2.25;;;;;;;-2.85;89.59;102826.00;5100332;28;20029;-64
2024/01/09 02:19:34;;;;;;;0.70;0.70;;;;;;;-2.86;89.70;102811.50;5085144;28;20035;-64
2024/01/09 02:21:59;;;;;;;2.25;2.05;;;;;;;-2.81;89.95;102819.53;5084934;28;20017;-64
2024/01/09 02:24:25;;;;;;;1.70;1.60;;;;;;;-2.78;89.91;102814.72;5084946;28;20024;-64
2024/01/09 02:27:04;;;;;;;0.63;0.63;;;;;;;-2.80;90.11;102801.88;5085068;28;20054;-65
2024/01/09 02:29:32;;;;;;;1.40;1.35;;;;;;;-2.74;90.22;102804.03;5084833;28;20025;-64
2024/01/09 02:31:58;;;;;;;0.85;0.75;;;;;;;-2.70;90.41;102793.34;5084555;28;20028;-64
2024/01/09 02:34:24;;;;;;;2.05;1.95;;;;;;;-2.67;90.55;102797.81;5100586;28;20035;-66
2024/01/09 02:36:50;;;;;;;2.03;1.90;;;;;;;-2.56;90.63;102812.34;5084961;28;20020;-65
2024/01/09 02:39:15;;;;;;;1.42;1.33;;;;;;;-2.52;90.65;102811.81;5084780;28;20075;-65
2024/01/09 02:41:40;;;;;;;1.23;1.20;;;;;;;-2.48;90.62;102810.44;5087627;28;20337;-66
2024/01/09 02:44:06;;;;;;;1.23;1.23;;;;;;;-2.42;90.38;102812.59;5089006;28;20035;-65
2024/01/09 02:46:31;;;;;;;2.08;1.98;;;;;;;-2.42;90.63;102807.50;5089017;28;20040;-64
2024/01/09 02:48:57;;;;;;;1.13;1.02;;;;;;;-2.38;90.22;102809.56;5088559;28;20052;-64
2024/01/09 02:51:22;;;;;;;6.43;2.33;;;;;;;-2.34;90.39;102808.16;5104510;28;20123;-64
2024/01/09 02:53:48;;;;;;;2.47;2.17;;;;;;;-2.31;90.55;102794.03;5088922;28;20032;-64
2024/01/09 02:56:14;;;;;;;2.15;2.05;;;;;;;-2.41;90.26;102777.09;5104324;28;20027;-64
2024/01/09 02:58:39;;;;;;;1.83;1.73;;;;;;;-2.17;90.05;102794.31;5088651;28;20540;-66
2024/01/09 03:01:06;;;;;;;1.98;1.83;;;;;;;-2.18;90.23;102792.50;5088619;28;20025;-65
2024/01/09 03:03:32;;;;;;;3.72;2.13;;;;;;;-2.20;90.00;102792.38;5088383;28;20074;-65
2024/01/09 03:05:57;;;;;;;1.73;1.42;;;;;;;-2.14;90.13;102797.09;5088665;28;20024;-67
2024/01/09 03:08:22;;;;;;;1.83;1.73;;;;;;;-2.09;89.96;102798.34;5087046;28;20119;-66
2024/01/09 03:10:48;;;;;;;2.65;2.45;;;;;;;-1.97;89.72;102800.13;5088497;28;20027;-65
2024/01/09 03:13:13;;;;;;;7.78;2.75;;;;;;;-1.93;89.58;102803.03;5088309;28;20045;-65
2024/01/09 03:15:38;;;;;;;5.72;3.50;;;;;;;-1.90;89.45;102802.44;5088252;28;20521;-65
2024/01/09 03:18:04;;;;;;;1.73;1.63;;;;;;;-1.89;89.06;102800.00;5088009;28;20020;-65
2024/01/09 03:20:29;;;;;;;5.20;2.78;;;;;;;-1.93;89.01;102792.88;5103704;28;20111;-65
2024/01/09 03:22:55;;;;;;;2.55;1.40;;;;;;;-1.89;88.99;102797.47;5088195;28;20448;-65
2024/01/09 03:25:20;;;;;;;2.05;1.92;;;;;;;-1.85;89.06;102797.72;5088122;28;20032;-65
2024/01/09 03:27:45;;;;;;;3.83;2.35;;;;;;;-1.84;88.85;102800.38;5088062;28;20080;-64
2024/01/09 03:30:11;;;;;;;1.52;1.42;;;;;;;-1.82;88.77;102791.19;5087873;28;20035;-65
2024/01/09 03:32:36;;;;;;;2.60;2.20;;;;;;;-1.74;88.73;102799.44;5087668;28;20070;-64
2024/01/09 03:35:01;;;;;;;3.63;3.33;;;;;;;-1.72;88.84;102799.56;5088109;28;20036;-64
2024/01/09 03:37:27;;;;;;;7.38;2.58;;;;;;;-1.70;88.66;102796.41;5103447;28;20032;-64
2024/01/09 03:39:52;;;;;;;4.55;2.63;;;;;;;-1.66;88.62;102795.00;5087663;28;20101;-64
2024/01/09 03:42:17;;;;;;;1.02;1.02;;;;;;;-1.68;88.49;102794.88;5087874;28;20457;-64
2024/01/09 03:44:43;;;;;;;3.53;3.33;;;;;;;-1.65;88.46;102794.22;5087896;28;20028;-64
2024/01/09 03:47:08;;;;;;;2.92;2.25;;;;;;;-1.58;88.30;102798.16;5087411;28;20020;-65
2024/01/09 03:49:33;;;;;;;1.80;1.65;;;;;;;-1.56;88.29;102805.16;5087626;28;20017;-66
2024/01/09 03:51:59;;;;;;;11.00;3.10;;;;;;;-1.55;88.35;102801.81;5102729;28;20017;-65
2024/01/09 03:54:24;;;;;;;1.75;1.65;;;;;;;-1.60;88.35;102782.75;5087763;28;20393;-64
2024/01/09 03:56:49;;;;;;;9.43;2.67;;;;;;;-1.70;88.34;102778.56;5085874;28;20473;-64
2024/01/09 03:59:15;;;;;;;3.75;3.40;;;;;;;-1.72;88.41;102787.72;5087316;28;20052;-64
2024/01/09 04:01:40;;;;;;;9.95;3.42;;;;;;;-1.76;88.53;102784.03;5087558;28;20017;-64
2024/01/09 04:04:06;;;;;;;1.77;1.67;;;;;;;-1.77;88.80;102781.38;5087378;28;20473;-65
2024/01/09 04:06:32;;;;;;;13.55;2.15;;;;;;;-1.83;88.92;102769.03;5087749;28;20035;-64
2024/01/09 04:08:58;;;;;;;3.72;3.03;;;;;;;-1.75;89.20;102775.66;5087269;28;20016;-65
2024/01/09 04:11:23;;;;;;;2.80;2.45;;;;;;;-1.76;89.29;102768.75;5087247;28;20025;-65
2024/01/09 04:13:48;;;;;;;8.15;5.13;;;;;;;-1.79;89.56;102765.97;5087479;28;20031;-66
2024/01/09 04:16:14;;;;;;;7.00;2.75;;;;;;;-1.78;89.54;102767.75;5087281;28;20021;-66
2024/01/09 04:18:39;;;;;;;10.23;4.60;;;;;;;-1.68;89.66;102768.50;5086937;28;20029;-65
2024/01/09 04:21:05;;;;;;;5.47;3.20;;;;;;;-1.59;89.65;102761.59;5102626;28;20062;-64
2024/01/09 04:23:30;;;;;;;5.38;4.90;;;;;;;-1.63;89.85;102752.81;5087114;28;20028;-65
2024/01/09 04:25:55;;;;;;;6.68;2.10;;;;;;;-1.67;90.01;102734.59;5087105;28;20024;-64
2024/01/09 04:28:21;;;;;;;2.40;1.92;;;;;;;-1.55;89.76;102738.13;5102530;28;20159;-65
2024/01/09 04:30:46;;;;;;;5.18;4.38;;;;;;;-1.51;89.92;102746.91;5086901;28;20021;-65
2024/01/09 04:33:11;;;;;;;3.25;2.92;;;;;;;-1.47;89.83;102751.47;5086859;28;20419;-65
2024/01/09 04:35:37;;;;;;;8.30;2.90;;;;;;;-1.44;89.81;102739.00;5086718;28;20024;-65
2024/01/09 04:38:02;;;;;;;4.40;2.80;;;;;;;-1.40;89.96;102740.09;5086800;28;20028;-65
2024/01/09 04:40:28;;;;;;;7.05;5.32;;;;;;;-1.39;89.63;102737.69;5086665;28;20066;-65
2024/01/09 04:42:53;;;;;;;9.63;4.85;;;;;;;-1.32;89.70;102739.06;5102194;28;20447;-65
2024/01/09 04:45:18;;;;;;;1.58;1.45;;;;;;;-1.34;89.49;102730.41;5085322;28;20020;-64
2024/01/09 04:47:44;;;;;;;6.10;3.33;;;;;;;-1.46;89.43;102719.25;5086531;28;20468;-66
2024/01/09 04:50:09;;;;;;;4.28;3.83;;;;;;;-1.47;89.37;102728.53;5101968;28;20020;-65
2024/01/09 04:52:36;;;;;;;1.30;1.20;;;;;;;-1.54;89.36;102723.75;5086505;28;20031;-66
2024/01/09 04:55:02;;;;;;;6.85;3.50;;;;;;;-1.58;89.45;102724.28;5086431;28;20507;-64
2024/01/09 04:57:27;;;;;;;1.48;1.40;;;;;;;-1.50;89.71;102728.28;5086681;28;20032;-65
2024/01/09 04:59:53;;;;;;;3.75;3.40;;;;;;;-1.50;89.73;102713.91;5101865;28;20024;-65
2024/01/09 05:02:18;;;;;;;1.70;1.63;;;;;;;-1.55;90.02;102697.38;5085085;28;20088;-65
2024/01/09 05:04:43;;;;;;;3.63;2.95;;;;;;;-1.43;89.98;102711.84;5086279;28;20021;-64
2024/01/09 05:07:09;;;;;;;4.18;2.42;;;;;;;-1.42;89.92;102701.75;5086288;28;20529;-66
2024/01/09 05:09:34;;;;;;;1.38;1.25;;;;;;;-1.42;89.79;102708.53;5086179;28;20030;-66
2024/01/09 05:11:59;;;;;;;3.45;3.15;;;;;;;-1.50;90.03;102698.63;5101523;28;20030;-65
2024/01/09 05:14:25;;;;;;;1.63;1.52;;;;;;;-1.52;90.13;102710.34;5086260;28;20040;-66
2024/01/09 05:16:50;;;;;;;0.95;0.95;;;;;;;-1.50;90.06;102702.81;5086003;28;20032;-65
2024/01/09 05:19:15;;;;;;;3.00;1.80;;;;;;;-1.44;90.02;102710.06;5085932;28;20028;-65
2024/01/09 05:21:41;;;;;;;1.77;1.63;;;;;;;-1.38;89.93;102706.34;5086031;28;20048;-65
2024/01/09 05:24:15;;;;;;;2.78;2.58;;;;;;;-1.40;90.52;102704.44;5086116;28;20021;-67
2024/01/09 05:26:41;;;;;;;3.53;2.70;;;;;;;-1.43;90.57;102694.00;5086016;28;20047;-65
2024/01/09 05:29:06;;;;;;;4.32;3.72;;;;;;;-1.35;90.44;102708.25;5085840;28;20020;-65
2024/01/09 05:31:31;;;;;;;2.22;1.98;;;;;;;-1.41;90.41;102700.13;5085748;28;20491;-67
2024/01/09 05:33:57;;;;;;;3.90;2.55;;;;;;;-1.38;90.55;102698.72;5085330;28;20392;-67
2024/01/09 05:36:22;;;;;;;3.72;3.35;;;;;;;-1.40;90.38;102695.13;5100963;28;20028;-65
2024/01/09 05:38:52;;;;;;;5.00;4.20;;;;;;;-1.31;90.42;102704.28;5085068;28;20020;-65
2024/01/09 05:41:23;;;;;;;1.20;1.10;;;;;;;-1.30;90.56;102698.41;5084140;28;20025;-65
2024/01/09 05:43:49;;;;;;;0.73;0.73;;;;;;;-1.27;90.32;102698.63;5085627;28;20024;-64
2024/01/09 05:46:14;;;;;;;1.98;1.88;;;;;;;-1.29;90.41;102701.06;5085363;28;20025;-65
2024/01/09 05:48:40;;;;;;;1.75;1.65;;;;;;;-1.32;90.47;102700.81;5085242;28;20027;-63
2024/01/09 05:51:06;;;;;;;2.50;2.30;;;;;;;-1.30;90.62;102708.59;5100907;28;20021;-65
2024/01/09 05:53:31;;;;;;;5.68;3.28;;;;;;;-1.23;90.41;102707.41;5085297;28;20024;-63
2024/01/09 05:55:57;;;;;;;1.77;1.67;;;;;;;-1.15;90.31;102714.00;5085137;28;20029;-64
2024/01/09 05:58:22;;;;;;;2.60;2.33;;;;;;;-1.14;90.13;102719.22;5085340;28;20105;-64
2024/01/09 06:00:47;;;;;;;3.40;3.10;;;;;;;-1.18;90.02;102714.63;5085539;28;20025;-65
2024/01/09 06:03:13;;;;;;;4.05;3.15;;;;;;;-1.21;89.82;102713.50;5085406;28;20024;-64
2024/01/09 06:05:38;;;;;;;5.78;4.57;;;;;;;-1.22;89.69;102711.72;5100974;28;20032;-64
2024/01/09 06:08:04;;;;;;;5.05;3.30;;;;;;;-1.25;89.71;102710.72;5085417;28;20134;-64
2024/01/09 06:10:29;;;;;;;5.95;3.50;;;;;;;-1.23;89.68;102712.50;5085377;28;20046;-64
2024/01/09 06:12:54;;;;;;;4.60;2.40;;;;;;;-1.23;89.63;102709.97;5085133;28;20047;-64
2024/01/09 06:15:20;;;;;;;3.03;2.75;;;;;;;-1.29;89.67;102698.53;5100558;28;20032;-64
2024/01/09 06:17:45;;;;;;;3.88;3.30;;;;;;;-1.26;89.64;102708.94;5085115;28;20024;-64
2024/01/09 06:20:11;;;;;;;6.25;2.67;;;;;;;-1.28;89.63;102695.19;5083567;28;20063;-63
2024/01/09 06:22:36;;;;;;;4.93;3.35;;;;;;;-1.25;89.72;102695.41;5085141;28;20036;-64
2024/01/09 06:25:02;;;;;;;4.53;4.15;;;;;;;-1.16;89.76;102712.22;5085096;28;20024;-64
2024/01/09 06:27:27;;;;;;;4.97;2.55;;;;;;;-1.16;89.90;102713.09;5085276;28;20043;-63
2024/01/09 06:29:52;;;;;;;4.72;3.15;;;;;;;-1.15;90.03;102711.47;5085056;28;20119;-63
2024/01/09 06:32:18;;;;;;;7.53;3.95;;;;;;;-1.19;89.90;102699.22;5100186;28;20020;-64
2024/01/09 06:34:43;;;;;;;1.92;1.83;;;;;;;-1.16;89.87;102696.91;5085140;28;20020;-64
2024/01/09 06:37:08;;;;;;;3.53;3.22;;;;;;;-1.16;89.90;102694.38;5085135;28;20016;-63
2024/01/09 06:39:35;;;;;;;2.55;2.35;;;;;;;-1.24;89.97;102675.94;5100256;28;20083;-64
2024/01/09 06:42:01;;;;;;;5.28;2.90;;;;;;;-1.15;90.15;102694.47;5085084;28;20036;-63
2024/01/09 06:44:26;;;;;;;2.10;2.00;;;;;;;-1.17;90.23;102690.03;5100169;28;20043;-63
2024/01/09 06:46:51;;;;;;;8.02;4.03;;;;;;;-1.16;90.08;102684.16;5085150;28;20417;-64
2024/01/09 06:49:17;;;;;;;1.58;1.48;;;;;;;-1.20;90.07;102669.41;5100329;28;20052;-64
2024/01/09 06:51:44;;;;;;;8.40;2.95;;;;;;;-1.20;90.05;102684.72;5084964;28;20028;-63
2024/01/09 06:54:09;;;;;;;2.78;2.13;;;;;;;-1.16;90.06;102690.16;5085084;28;20080;-64
2024/01/09 06:56:34;;;;;;;3.10;1.50;;;;;;;-1.10;90.39;102683.75;5085090;28;20036;-63
2024/01/09 06:59:00;;;;;;;3.60;1.88;;;;;;;-1.15;90.49;102676.63;5084984;28;20031;-63
2024/01/09 07:01:26;;;;;;;3.17;2.97;;;;;;;-1.09;90.32;102681.34;5085039;28;20050;-65
2024/01/09 07:03:51;;;;;;;1.58;1.48;;;;;;;-1.09;90.23;102681.34;5084869;28;20059;-63
2024/01/09 07:06:17;;;;;;;3.65;2.65;;;;;;;-1.12;90.22;102684.50;5084996;28;20074;-63
2024/01/09 07:08:42;;;;;;;3.35;2.88;;;;;;;-1.07;90.00;102684.88;5100565;28;20034;-63
2024/01/09 07:11:07;;;;;;;8.73;1.83;;;;;;;-1.12;90.10;102687.06;5085037;28;20021;-62
2024/01/09 07:13:33;;;;;;;3.28;2.95;;;;;;;-1.18;90.19;102683.19;5085020;28;20093;-63
2024/01/09 07:15:58;;;;;;;4.80;1.75;;;;;;;-1.15;89.79;102681.72;5084928;28;20480;-63
2024/01/09 07:18:24;;;;;;;1.80;1.70;;;;;;;-1.20;89.83;102677.06;5084560;28;20059;-63
2024/01/09 07:20:50;;;;;;;3.40;3.20;;;;;;;-1.24;89.72;102691.22;5084916;28;20016;-63
2024/01/09 07:23:15;;;;;;;2.28;2.15;;;;;;;-1.31;89.86;102689.84;5084893;28;20021;-63
2024/01/09 07:25:40;;;;;;;2.42;2.20;;;;;;;-1.37;89.94;102686.84;5085681;28;20047;-64
2024/01/09 07:28:06;;;;;;;4.85;3.38;;;;;;;-1.34;89.76;102686.19;5088554;28;20031;-62
2024/01/09 07:30:31;;;;;;;13.98;3.63;;;;;;;-1.36;89.76;102688.63;5088273;28;20024;-62
2024/01/09 07:32:56;;;;;;;1.55;1.45;;;;;;;-1.37;89.98;102697.03;5088204;28;20089;-63
2024/01/09 07:35:22;;;;;;;11.82;4.25;;;;;;;-1.38;89.92;102698.72;5088601;28;20020;-64
2024/01/09 07:37:47;;;;;;;2.78;2.53;;;;;;;-1.39;89.80;102690.94;5088232;28;20080;-62
2024/01/09 07:40:13;;;;;;;1.88;1.75;;;;;;;-1.40;89.73;102697.69;5103719;28;20106;-63
2024/01/09 07:42:38;;;;;;;2.75;2.20;;;;;;;-1.43;89.80;102694.91;5088318;28;20017;-63
2024/01/09 07:45:04;;;;;;;1.85;1.75;;;;;;;-1.40;89.66;102701.88;5088300;28;20027;-63
2024/01/09 07:47:29;;;;;;;17.80;4.55;;;;;;;-1.41;89.39;102713.75;5088073;28;20021;-63
2024/01/09 07:49:55;;;;;;;3.85;3.45;;;;;;;-1.53;89.09;102710.22;5088186;28;20494;-63
2024/01/09 07:52:21;;;;;;;4.30;3.78;;;;;;;-1.62;89.34;102702.75;5088007;28;20021;-64
2024/01/09 07:54:47;;;;;;;1.80;1.70;;;;;;;-1.64;89.63;102704.28;5088183;28;20044;-63
2024/01/09 07:57:12;;;;;;;12.77;3.20;;;;;;;-1.58;89.57;102704.75;5088089;28;20031;-63
2024/01/09 07:59:40;;;;;;;6.35;2.55;;;;;;;-1.58;89.70;102704.75;5087987;28;20092;-64
2024/01/09 08:02:06;;;;;;;3.00;2.15;;;;;;;-1.54;89.64;102713.53;5088065;28;20021;-63
2024/01/09 08:04:32;;;;;;;2.70;2.30;;;;;;;-1.52;89.84;102717.97;5087634;28;20043;-63
2024/01/09 08:06:57;;;;;;;2.22;2.08;;;;;;;-1.48;89.87;102705.47;5087912;28;20032;-63
2024/01/09 08:09:22;;;;;;;6.75;1.70;;;;;;;-1.47;89.79;102694.53;5087649;28;20490;-63
2024/01/09 08:11:48;;;;;;;3.47;3.17;;;;;;;-1.46;89.78;102691.22;5087961;28;20108;-64
2024/01/09 08:14:14;;;;;;;1.17;1.17;;;;;;;-1.46;89.65;102686.13;5087818;28;20381;-63
2024/01/09 08:16:40;;;;;;;1.90;1.80;;;;;;;-1.41;89.67;102692.47;5087719;28;20028;-63
2024/01/09 08:19:06;;;;;;;6.50;4.03;;;;;;;-1.44;89.67;102697.34;5102881;28;20082;-62
2024/01/09 08:21:32;;;;;;;2.35;2.15;;;;;;;-1.43;89.61;102696.56;5086394;28;20118;-64
2024/01/09 08:23:57;;;;;;;3.90;1.77;;;;;;;-1.47;89.43;102702.19;5087654;28;20460;-64
2024/01/09 08:26:23;;;;;;;2.92;2.60;;;;;;;-1.51;89.49;102707.03;5087576;28;20089;-63
2024/01/09 08:28:48;;;;;;;2.55;2.28;;;;;;;-1.54;89.60;102711.00;5087378;28;20456;-63
2024/01/09 08:31:14;;;;;;;3.47;3.17;;;;;;;-1.60;89.58;102711.41;5087392;28;20070;-64
2024/01/09 08:33:39;;;;;;;12.10;2.88;;;;;;;-1.57;89.69;102720.94;5087245;28;20039;-64
2024/01/09 08:36:05;;;;;;;11.63;2.90;;;;;;;-1.58;89.53;102720.06;5087496;28;20028;-64
2024/01/09 08:38:30;;;;;;;4.72;4.30;;;;;;;-1.67;89.72;102710.03;5085482;28;20052;-63
2024/01/09 08:40:56;;;;;;;3.17;2.88;;;;;;;-1.72;89.68;102707.88;5095515;22;20411;-65
2024/01/09 08:43:22;;;;;;;4.50;4.10;;;;;;;-1.81;89.66;102698.75;5111747;23;20028;-64
2024/01/09 08:45:49;;;;;;;2.65;2.20;;;;;;;-1.76;89.63;102720.38;5143789;22;20056;-65
2024/01/09 08:48:14;;;;;;;1.20;1.20;;;;;;;-1.74;89.56;102723.03;5110895;22;20048;-64
2024/01/09 08:50:40;;;;;;;2.80;2.53;;;;;;;-1.78;89.67;102715.94;5087954;28;20026;-62
2024/01/09 08:53:05;;;;;;;3.92;3.45;;;;;;;-1.80;89.96;102712.38;5114904;23;20028;-65
2024/01/09 08:55:30;;;;;;;5.50;4.43;;;;;;;-1.73;90.34;102708.66;5114964;22;20105;-63
2024/01/09 08:57:56;;;;;;;3.45;3.17;;;;;;;-1.65;90.35;102723.78;5106672;28;20020;-62
2024/01/09 09:00:21;;;;;;;8.02;3.10;;;;;;;-1.54;90.46;102744.13;5106777;28;20438;-63
2024/01/09 09:02:47;;;;;;;7.18;2.97;;;;;;;-1.50;90.25;102734.28;5106413;28;20020;-62
2024/01/09 09:05:12;;;;;;;6.57;4.32;;;;;;;-1.47;90.59;102726.00;5106807;28;20031;-63
2024/01/09 09:07:38;;;;;;;7.57;3.72;;;;;;;-1.42;90.67;102714.50;5106611;28;20088;-63
2024/01/09 09:12:36;;;;;;;6.40;2.45;;;;;;;-1.22;90.69;102737.22;5097887;28;20483;-65
2024/01/09 09:15:03;;;;;;;5.07;2.25;;;;;;;-1.15;90.36;102742.91;5106418;28;20035;-65
2024/01/09 09:17:29;;;;;;;1.85;1.45;;;;;;;-1.18;90.08;102735.03;5105989;28;20027;-66
2024/01/09 09:19:54;;;;;;;5.78;2.35;;;;;;;-1.15;90.02;102737.81;5106577;28;20028;-65
2024/01/09 09:22:23;;;;;;;4.97;4.40;;;;;;;-1.15;90.13;102716.56;5106126;28;20065;-65
2024/01/09 09:24:49;;;;;;;2.65;2.45;;;;;;;-1.11;90.30;102738.94;5106234;28;20031;-65
2024/01/09 09:27:14;;;;;;;10.15;5.97;;;;;;;-1.10;90.03;102737.31;5088178;28;20027;-66
2024/01/09 09:29:41;;;;;;;4.47;2.95;;;;;;;-1.12;89.90;102744.84;5103177;23;20427;-63
2024/01/09 09:32:06;;;;;;;2.65;2.45;;;;;;;-1.13;89.95;102735.38;5085907;22;20130;-68
2024/01/09 09:34:47;;;;;;;6.25;2.35;;;;;;;-1.13;89.99;102728.63;5123178;27;20388;-68
2024/01/09 09:37:13;;;;;;;11.93;4.57;;;;;;;-1.01;89.77;102735.47;5107182;22;20595;-65
2024/01/09 09:39:38;;;;;;;1.80;1.67;;;;;;;-0.93;90.03;102725.84;5101608;28;20029;-66
2024/01/09 09:42:04;;;;;;;6.55;4.07;;;;;;;-0.94;89.97;102722.41;5121453;22;20071;-65
2024/01/09 09:44:29;;;;;;;6.85;2.42;;;;;;;-0.84;90.25;102718.91;5100048;28;20034;-65
2024/01/09 09:46:56;;;;;;;9.40;3.67;;;;;;;-0.82;90.35;102709.72;5102358;28;20024;-65
2024/01/09 09:49:22;;;;;;;17.45;3.15;;;;;;;-0.72;90.56;102702.75;5102106;28;20130;-67
2024/01/09 09:51:49;;;;;;;1.60;1.52;;;;;;;-0.69;90.60;102702.97;5101023;28;20076;-65
2024/01/09 09:54:15;;;;;;;10.45;2.63;;;;;;;-0.62;90.48;102707.75;5101972;28;20024;-65
2024/01/09 09:56:41;;;;;;;3.22;2.92;;;;;;;-0.62;90.33;102702.66;5102242;28;20020;-66
2024/01/09 09:59:10;;;;;;;7.15;2.78;;;;;;;-0.64;90.17;102702.53;5101936;28;20363;-65
2024/01/09 10:01:36;;;;;;;3.63;3.28;;;;;;;-0.58;90.03;102691.91;5119289;22;20074;-65
2024/01/09 10:04:06;;;;;;;2.20;2.10;;;;;;;-0.58;90.10;102693.56;5121492;28;20113;-65
2024/01/09 10:06:33;;;;;;;5.90;3.85;;;;;;;-0.63;90.37;102683.03;5121010;22;20076;-68
2024/01/09 10:09:02;;;;;;;5.85;4.20;;;;;;;-0.69;90.30;102674.91;5100033;28;20021;-69
2024/01/09 10:11:29;;;;;;;4.15;3.08;;;;;;;-0.71;90.14;102661.13;5118299;22;20064;-65
2024/01/09 10:13:55;;;;;;;8.80;2.63;;;;;;;-0.63;90.00;102683.03;5122504;28;20032;-65
2024/01/09 10:16:20;;;;;;;5.43;2.20;;;;;;;-0.63;90.38;102681.38;5122318;28;20061;-65
2024/01/09 10:18:45;;;;;;;5.35;4.85;;;;;;;-0.64;90.35;102677.00;5113303;22;20056;-68
2024/01/09 10:21:11;;;;;;;2.90;2.65;;;;;;;-0.65;90.71;102679.44;5100622;28;20020;-69
2024/01/09 10:23:38;;;;;;;5.85;3.72;;;;;;;-0.58;90.51;102679.16;5100477;28;20020;-68
2024/01/09 10:26:10;;;;;;;3.20;2.25;;;;;;;-0.46;90.38;102680.84;5101857;28;20025;-68
2024/01/09 10:28:36;;;;;;;;;;;;;;;-0.36;90.69;102692.59;5102401;28;20028;-67
2024/01/09 10:31:06;;;;;;;2.28;2.17;;;;;;;-0.41;90.65;102694.81;5101775;28;19967;-68
2024/01/09 10:33:32;;;;;;;3.80;3.38;;;;;;;-0.35;90.37;102702.91;5119712;22;20135;-66
2024/01/09 10:35:58;;;;;;;4.25;3.10;;;;;;;-0.29;90.33;102698.25;5122604;28;20028;-65
2024/01/09 10:38:25;;;;;;;2.28;2.08;;;;;;;-0.26;90.46;102697.63;5122223;28;20027;-65
2024/01/09 10:40:55;;;;;;;8.32;3.10;;;;;;;-0.24;90.76;102700.28;5120767;28;20028;-65
2024/01/09 10:43:23;;;;;;;2.30;1.83;;;;;;;-0.27;90.81;102696.72;5120945;28;20028;-65
2024/01/09 10:45:50;;;;;;;9.43;4.20;;;;;;;-0.29;90.66;102684.63;5108836;28;20023;-65
2024/01/09 10:48:16;;;;;;;2.85;2.58;;;;;;;-0.26;90.75;102680.63;5106874;28;20024;-65
2024/01/09 10:50:42;;;;;;;3.95;3.58;;;;;;;-0.27;90.69;102676.28;5108390;28;20027;-65
2024/01/09 10:53:09;;;;;;;3.17;2.72;;;;;;;-0.29;90.98;102665.06;5108464;28;20081;-65
2024/01/09 10:55:36;;;;;;;10.18;4.80;;;;;;;-0.15;90.87;102667.75;5108289;28;20043;-64
2024/01/09 10:58:02;;;;;;;2.17;2.00;;;;;;;-0.11;90.82;102664.63;5108123;28;20031;-65
2024/01/09 11:00:30;;;;;;;3.83;3.45;;;;;;;-0.13;90.76;102646.66;5108271;28;20034;-65
2024/01/09 11:02:55;;;;;;;4.28;2.10;;;;;;;-0.10;90.90;102650.22;5107834;28;20073;-66
2024/01/09 11:05:21;;;;;;;4.40;3.97;;;;;;;-0.14;91.06;102638.88;5108358;28;20012;-65
2024/01/09 11:07:49;;;;;;;9.38;3.38;;;;;;;-0.14;90.76;102639.78;5108080;28;20020;-65
2024/01/09 11:10:19;;;;;;;10.55;3.55;;;;;;;-0.06;90.67;102649.63;5107973;28;20028;-64
2024/01/09 11:12:47;;;;;;;6.22;2.67;;;;;;;-0.26;90.50;102621.03;5107969;28;20023;-65
2024/01/09 11:15:26;;;;;;;7.68;5.85;;;;;;;-0.10;90.82;102647.66;5107972;28;20027;-64
2024/01/09 11:17:56;;;;;;;3.90;3.38;;;;;;;-0.13;91.02;102635.56;5107713;28;20028;-65
2024/01/09 11:20:21;;;;;;;7.75;5.82;;;;;;;-0.02;91.02;102644.88;5107411;28;20020;-66